地図

経路データ

SID SEASON NUMBER BASIN SUBBASIN NAME ISO_TIME NATURE LAT LON WMO_WIND WMO_PRES WMO_AGENCY TRACK_TYPE DIST2LAND LANDFALL IFLAG USA_AGENCY USA_ATCF_ID USA_LAT USA_LON USA_RECORD USA_STATUS USA_WIND USA_PRES USA_SSHS USA_R34_NE USA_R34_SE USA_R34_SW USA_R34_NW USA_R50_NE USA_R50_SE USA_R50_SW USA_R50_NW USA_R64_NE USA_R64_SE USA_R64_SW USA_R64_NW USA_POCI USA_ROCI USA_RMW USA_EYE TOKYO_LAT TOKYO_LON TOKYO_GRADE TOKYO_WIND TOKYO_PRES TOKYO_R50_DIR TOKYO_R50_LONG TOKYO_R50_SHORT TOKYO_R30_DIR TOKYO_R30_LONG TOKYO_R30_SHORT TOKYO_LAND CMA_LAT CMA_LON CMA_CAT CMA_WIND CMA_PRES HKO_LAT HKO_LON HKO_CAT HKO_WIND HKO_PRES NEWDELHI_LAT NEWDELHI_LON NEWDELHI_GRADE NEWDELHI_WIND NEWDELHI_PRES NEWDELHI_CI NEWDELHI_DP NEWDELHI_POCI REUNION_LAT REUNION_LON REUNION_TYPE REUNION_WIND REUNION_PRES REUNION_TNUM REUNION_CI REUNION_RMW REUNION_R34_NE REUNION_R34_SE REUNION_R34_SW REUNION_R34_NW REUNION_R50_NE REUNION_R50_SE REUNION_R50_SW REUNION_R50_NW REUNION_R64_NE REUNION_R64_SE REUNION_R64_SW REUNION_R64_NW BOM_LAT BOM_LON BOM_TYPE BOM_WIND BOM_PRES BOM_TNUM BOM_CI BOM_RMW BOM_R34_NE BOM_R34_SE BOM_R34_SW BOM_R34_NW BOM_R50_NE BOM_R50_SE BOM_R50_SW BOM_R50_NW BOM_R64_NE BOM_R64_SE BOM_R64_SW BOM_R64_NW BOM_ROCI BOM_POCI BOM_EYE BOM_POS_METHOD BOM_PRES_METHOD NADI_LAT NADI_LON NADI_CAT NADI_WIND NADI_PRES WELLINGTON_LAT WELLINGTON_LON WELLINGTON_WIND WELLINGTON_PRES DS824_LAT DS824_LON DS824_STAGE DS824_WIND DS824_PRES TD9636_LAT TD9636_LON TD9636_STAGE TD9636_WIND TD9636_PRES TD9635_LAT TD9635_LON TD9635_WIND TD9635_PRES TD9635_ROCI NEUMANN_LAT NEUMANN_LON NEUMANN_CLASS NEUMANN_WIND NEUMANN_PRES MLC_LAT MLC_LON MLC_CLASS MLC_WIND MLC_PRES USA_GUST BOM_GUST BOM_GUST_PER REUNION_GUST REUNION_GUST_PER USA_SEAHGT USA_SEARAD_NE USA_SEARAD_SE USA_SEARAD_SW USA_SEARAD_NW STORM_SPEED STORM_DIR
1943001S15045 1943 2 SI MM NOT_NAMED 1943-01-01 06:00:00 NR -15.1000 45.4000 reunion main 92 92 _____O________ -1 -15.1000 45.4000 99 9.90000 0 0
1943001S15045 1943 2 SI MM NOT_NAMED 1943-01-01 09:00:00 NR -15.1034 45.3874 main 92 92 _____P________ -1 -15.1034 45.3874 99 0 250
1943001S15045 1943 2 SI MM NOT_NAMED 1943-01-01 12:00:00 NR -15.1136 45.3701 main 92 92 _____P________ -1 -15.1136 45.3701 99 1 233
1943001S15045 1943 2 SI MM NOT_NAMED 1943-01-01 15:00:00 NR -15.1374 45.3433 main 95 84 _____P________ -1 -15.1374 45.3433 99 1 225
1943001S15045 1943 2 SI MM NOT_NAMED 1943-01-01 18:00:00 NR -15.1818 45.3022 main 84 84 _____P________ -1 -15.1818 45.3022 99 2 221
1943001S15045 1943 2 SI MM NOT_NAMED 1943-01-01 21:00:00 NR -15.2534 45.2422 main 78 67 _____P________ -1 -15.2534 45.2422 99 2 218
1943001S15045 1943 2 SI MM NOT_NAMED 1943-01-02 00:00:00 NR -15.3591 45.1584 main 67 55 _____P________ -1 -15.3591 45.1584 99 3 217
1943001S15045 1943 2 SI MM NOT_NAMED 1943-01-02 03:00:00 NR -15.5057 45.0460 main 56 39 _____P________ -1 -15.5057 45.0460 99 4 216
1943001S15045 1943 2 SI MM NOT_NAMED 1943-01-02 06:00:00 NR -15.7000 44.9000 reunion main 39 30 _____O________ -1 -15.7000 44.9000 99 9.90000 5 216
1943001S15045 1943 2 SI MM NOT_NAMED 1943-01-02 09:00:00 NR -15.9455 44.7178 main 39 11 _____P________ -1 -15.9455 44.7178 99 7 215
1943001S15045 1943 2 SI MM NOT_NAMED 1943-01-02 12:00:00 NR -16.2325 44.5056 main 11 0 _____P________ -1 -16.2325 44.5056 99 7 215
1943001S15045 1943 2 SI MM NOT_NAMED 1943-01-02 15:00:00 NR -16.5479 44.2723 main 10 10 _____P________ -1 -16.5479 44.2723 99 8 215
1943001S15045 1943 2 SI MM NOT_NAMED 1943-01-02 18:00:00 NR -16.8789 44.0266 main 30 24 _____P________ -1 -16.8789 44.0266 99 8 215
1943001S15045 1943 2 SI MM NOT_NAMED 1943-01-02 21:00:00 NR -17.2125 43.7774 main 30 23 _____P________ -1 -17.2125 43.7774 99 8 216
1943001S15045 1943 2 SI MM NOT_NAMED 1943-01-03 00:00:00 NR -17.5358 43.5338 main 42 42 _____P________ -1 -17.5358 43.5338 99 8 216
1943001S15045 1943 2 SI MM NOT_NAMED 1943-01-03 03:00:00 NR -17.8359 43.3049 main 71 71 _____P________ -1 -17.8359 43.3049 99 7 216
1943001S15045 1943 2 SI MM NOT_NAMED 1943-01-03 06:00:00 NR -18.1000 43.1000 reunion main 95 95 _____O________ -1 -18.1000 43.1000 99 9.90000 6 217
1943001S15045 1943 2 SI MM NOT_NAMED 1943-01-03 09:00:00 NR -18.3186 42.9263 main 116 116 _____P________ -1 -18.3186 42.9263 99 5 217
1943001S15045 1943 2 SI MM NOT_NAMED 1943-01-03 12:00:00 NR -18.4947 42.7819 main 127 127 _____P________ -1 -18.4947 42.7819 99 4 218
1943001S15045 1943 2 SI MM NOT_NAMED 1943-01-03 15:00:00 NR -18.6344 42.6628 main 138 138 _____P________ -1 -18.6344 42.6628 99 3 220
1943001S15045 1943 2 SI MM NOT_NAMED 1943-01-03 18:00:00 NR -18.7438 42.5648 main 151 151 _____P________ -1 -18.7438 42.5648 99 3 221
1943001S15045 1943 2 SI MM NOT_NAMED 1943-01-03 21:00:00 NR -18.8290 42.4837 main 164 164 _____P________ -1 -18.8290 42.4837 99 2 223
1943001S15045 1943 2 SI MM NOT_NAMED 1943-01-04 00:00:00 NR -18.8961 42.4154 main 177 177 _____P________ -1 -18.8961 42.4154 99 2 225
1943001S15045 1943 2 SI MM NOT_NAMED 1943-01-04 03:00:00 NR -18.9511 42.3556 main 181 181 _____P________ -1 -18.9511 42.3556 99 2 227
1943001S15045 1943 2 SI MM NOT_NAMED 1943-01-04 06:00:00 NR -19.0000 42.3000 reunion main 191 _____O________ -1 -19.0000 42.3000 99 9.90000 1 232

IBTrACS Databaseについて

本データベースは、米国NOAAが公開する1842年以降の世界の熱帯低気圧のベストトラックデータアーカイブInternational Best Track Archive for Climate Stewardship (IBTrACS)を、ウェブで閲覧しやすい形式に変換したものです。

最終更新日:2021-11-26